Aviation WX

[Source: ADDS]
METAR
KFKL 291815Z 09010G22KT 10SM 16/12 A3017 RMK AO1 =
TAF
KFKL 291723Z 2918/3018 10011G21KT P6SM -SHRA BKN015 FM300400 10013G22KT P6SM -SHRA OVC008 FM301300 10011KT P6SM -SHRA OVC025 AMD NOT SKED =